sensor_id;sensor_type;location;lat;lon;timestamp;P1;durP1;ratioP1;P2;durP2;ratioP2
28216;SDS011;15493;56.858;24.340;2023-05-10T04:57:54;8.75;;;3.72;;
28216;SDS011;15493;56.858;24.340;2023-05-10T05:00:23;11.75;;;4.22;;
28216;SDS011;15493;56.858;24.340;2023-05-10T05:02:50;11.07;;;3.95;;
28216;SDS011;15493;56.858;24.340;2023-05-10T05:05:18;10.75;;;4.28;;
28216;SDS011;15493;56.858;24.340;2023-05-10T05:07:45;8.15;;;3.50;;
28216;SDS011;15493;56.858;24.340;2023-05-10T05:39:42;13.55;;;4.00;;
28216;SDS011;15493;56.858;24.340;2023-05-10T05:42:09;13.43;;;4.22;;
28216;SDS011;15493;56.858;24.340;2023-05-10T07:40:00;3.30;;;2.33;;
28216;SDS011;15493;56.858;24.340;2023-05-10T07:42:27;9.50;;;3.00;;
28216;SDS011;15493;56.858;24.340;2023-05-10T07:44:54;4.35;;;2.40;;
28216;SDS011;15493;56.858;24.340;2023-05-10T07:47:21;6.03;;;2.47;;
28216;SDS011;15493;56.858;24.340;2023-05-10T08:29:08;2.80;;;2.58;;
28216;SDS011;15493;56.858;24.340;2023-05-10T08:36:30;3.08;;;2.70;;
28216;SDS011;15493;56.858;24.340;2023-05-10T13:40:53;4.57;;;3.00;;
28216;SDS011;15493;56.858;24.340;2023-05-10T13:43:20;3.13;;;2.80;;
28216;SDS011;15493;56.858;24.340;2023-05-10T13:45:47;4.05;;;2.42;;
28216;SDS011;15493;56.858;24.340;2023-05-10T13:48:14;10.52;;;3.33;;
28216;SDS011;15493;56.858;24.340;2023-05-10T13:50:42;7.55;;;3.20;;
28216;SDS011;15493;56.858;24.340;2023-05-10T13:53:09;4.53;;;2.47;;
28216;SDS011;15493;56.858;24.340;2023-05-10T13:58:42;7.78;;;3.92;;
28216;SDS011;15493;56.858;24.340;2023-05-10T14:01:09;5.60;;;3.15;;
28216;SDS011;15493;56.858;24.340;2023-05-10T14:38:13;6.32;;;2.92;;
28216;SDS011;15493;56.858;24.340;2023-05-10T14:40:40;7.20;;;2.80;;
28216;SDS011;15493;56.858;24.340;2023-05-10T14:43:08;4.30;;;3.45;;
28216;SDS011;15493;56.858;24.340;2023-05-10T14:45:36;4.22;;;2.97;;
28216;SDS011;15493;56.858;24.340;2023-05-10T15:13:03;5.07;;;3.33;;
28216;SDS011;15493;56.858;24.340;2023-05-10T16:14:25;7.70;;;2.15;;
28216;SDS011;15493;56.858;24.340;2023-05-10T18:24:28;17.63;;;6.88;;
28216;SDS011;15493;56.858;24.340;2023-05-10T18:27:05;12.07;;;5.50;;
28216;SDS011;15493;56.858;24.340;2023-05-10T18:29:32;17.73;;;7.18;;
28216;SDS011;15493;56.858;24.340;2023-05-10T18:32:00;17.00;;;8.13;;
28216;SDS011;15493;56.858;24.340;2023-05-10T18:34:27;17.73;;;6.22;;
28216;SDS011;15493;56.858;24.340;2023-05-10T18:36:54;22.55;;;8.18;;
28216;SDS011;15493;56.858;24.340;2023-05-10T18:39:22;35.33;;;9.50;;
28216;SDS011;15493;56.858;24.340;2023-05-10T18:41:50;29.60;;;9.18;;
28216;SDS011;15493;56.858;24.340;2023-05-10T18:44:17;19.10;;;8.10;;
28216;SDS011;15493;56.858;24.340;2023-05-10T18:46:44;18.30;;;8.02;;
28216;SDS011;15493;56.858;24.340;2023-05-10T18:49:11;20.92;;;7.72;;
28216;SDS011;15493;56.858;24.340;2023-05-10T18:51:39;19.67;;;8.45;;
28216;SDS011;15493;56.858;24.340;2023-05-10T18:54:06;21.60;;;5.93;;
28216;SDS011;15493;56.858;24.340;2023-05-10T18:56:33;11.73;;;5.50;;
28216;SDS011;15493;56.858;24.340;2023-05-10T18:59:00;17.17;;;6.07;;
28216;SDS011;15493;56.858;24.340;2023-05-10T19:01:28;12.65;;;6.63;;
28216;SDS011;15493;56.858;24.340;2023-05-10T19:03:56;14.57;;;7.15;;
28216;SDS011;15493;56.858;24.340;2023-05-10T19:06:23;12.65;;;7.43;;
28216;SDS011;15493;56.858;24.340;2023-05-10T19:08:50;13.10;;;7.40;;
28216;SDS011;15493;56.858;24.340;2023-05-10T19:11:18;12.18;;;7.05;;
28216;SDS011;15493;56.858;24.340;2023-05-10T19:13:46;22.70;;;8.38;;
28216;SDS011;15493;56.858;24.340;2023-05-10T19:16:16;14.35;;;8.57;;
28216;SDS011;15493;56.858;24.340;2023-05-10T19:18:43;31.65;;;10.63;;
28216;SDS011;15493;56.858;24.340;2023-05-10T19:21:11;18.67;;;9.30;;
28216;SDS011;15493;56.858;24.340;2023-05-10T19:23:39;42.20;;;13.68;;
28216;SDS011;15493;56.858;24.340;2023-05-10T19:26:08;12.60;;;8.32;;
28216;SDS011;15493;56.858;24.340;2023-05-10T19:28:36;18.40;;;8.60;;
28216;SDS011;15493;56.858;24.340;2023-05-10T19:31:03;29.23;;;9.32;;
28216;SDS011;15493;56.858;24.340;2023-05-10T19:33:31;26.88;;;10.68;;
28216;SDS011;15493;56.858;24.340;2023-05-10T19:35:58;28.05;;;11.05;;
28216;SDS011;15493;56.858;24.340;2023-05-10T19:38:26;30.15;;;12.70;;
28216;SDS011;15493;56.858;24.340;2023-05-10T19:40:54;44.30;;;11.48;;
28216;SDS011;15493;56.858;24.340;2023-05-10T19:43:24;21.05;;;9.65;;
28216;SDS011;15493;56.858;24.340;2023-05-10T19:45:52;27.30;;;11.32;;
28216;SDS011;15493;56.858;24.340;2023-05-10T19:48:19;26.80;;;9.85;;
28216;SDS011;15493;56.858;24.340;2023-05-10T19:50:46;25.77;;;9.88;;
28216;SDS011;15493;56.858;24.340;2023-05-10T19:53:13;39.97;;;11.45;;
28216;SDS011;15493;56.858;24.340;2023-05-10T19:55:41;25.17;;;12.95;;
28216;SDS011;15493;56.858;24.340;2023-05-10T19:58:08;29.35;;;12.95;;
28216;SDS011;15493;56.858;24.340;2023-05-10T20:00:35;24.30;;;12.50;;
28216;SDS011;15493;56.858;24.340;2023-05-10T20:03:02;31.08;;;14.52;;
28216;SDS011;15493;56.858;24.340;2023-05-10T20:05:34;34.85;;;13.85;;
28216;SDS011;15493;56.858;24.340;2023-05-10T20:08:01;25.92;;;13.63;;
28216;SDS011;15493;56.858;24.340;2023-05-10T20:10:28;31.83;;;12.75;;
28216;SDS011;15493;56.858;24.340;2023-05-10T20:12:56;17.95;;;10.65;;
28216;SDS011;15493;56.858;24.340;2023-05-10T20:15:24;24.73;;;11.52;;
28216;SDS011;15493;56.858;24.340;2023-05-10T20:17:51;23.30;;;11.75;;
28216;SDS011;15493;56.858;24.340;2023-05-10T20:20:19;24.20;;;12.35;;
28216;SDS011;15493;56.858;24.340;2023-05-10T20:22:46;33.00;;;12.90;;
28216;SDS011;15493;56.858;24.340;2023-05-10T20:25:14;32.38;;;14.40;;
28216;SDS011;15493;56.858;24.340;2023-05-10T20:27:42;37.45;;;15.40;;
28216;SDS011;15493;56.858;24.340;2023-05-10T20:30:09;45.92;;;16.63;;
28216;SDS011;15493;56.858;24.340;2023-05-10T20:32:37;33.97;;;14.18;;
28216;SDS011;15493;56.858;24.340;2023-05-10T20:35:04;26.02;;;14.23;;
28216;SDS011;15493;56.858;24.340;2023-05-10T20:37:32;26.23;;;13.30;;
28216;SDS011;15493;56.858;24.340;2023-05-10T20:39:59;38.47;;;14.48;;
28216;SDS011;15493;56.858;24.340;2023-05-10T20:42:26;34.63;;;14.95;;
28216;SDS011;15493;56.858;24.340;2023-05-10T20:44:53;27.27;;;13.63;;
28216;SDS011;15493;56.858;24.340;2023-05-10T20:47:21;25.20;;;14.43;;
28216;SDS011;15493;56.858;24.340;2023-05-10T20:49:48;25.42;;;12.02;;
28216;SDS011;15493;56.858;24.340;2023-05-10T20:52:15;31.02;;;10.70;;
28216;SDS011;15493;56.858;24.340;2023-05-10T20:54:43;20.25;;;11.27;;
28216;SDS011;15493;56.858;24.340;2023-05-10T20:57:10;26.75;;;9.75;;
28216;SDS011;15493;56.858;24.340;2023-05-10T20:59:38;18.80;;;9.98;;
28216;SDS011;15493;56.858;24.340;2023-05-10T21:02:05;16.98;;;9.15;;
28216;SDS011;15493;56.858;24.340;2023-05-10T21:04:33;18.83;;;10.07;;
28216;SDS011;15493;56.858;24.340;2023-05-10T21:07:00;27.52;;;9.43;;
28216;SDS011;15493;56.858;24.340;2023-05-10T21:09:27;23.50;;;10.43;;
28216;SDS011;15493;56.858;24.340;2023-05-10T21:11:54;12.57;;;9.00;;
28216;SDS011;15493;56.858;24.340;2023-05-10T21:14:22;12.55;;;7.20;;
28216;SDS011;15493;56.858;24.340;2023-05-10T21:16:49;19.15;;;8.38;;
28216;SDS011;15493;56.858;24.340;2023-05-10T21:19:16;13.60;;;8.50;;
28216;SDS011;15493;56.858;24.340;2023-05-10T21:21:43;10.70;;;9.05;;
28216;SDS011;15493;56.858;24.340;2023-05-10T21:24:11;18.77;;;10.68;;
28216;SDS011;15493;56.858;24.340;2023-05-10T21:26:38;20.02;;;10.60;;
28216;SDS011;15493;56.858;24.340;2023-05-10T21:29:05;23.67;;;12.40;;
28216;SDS011;15493;56.858;24.340;2023-05-10T21:31:32;40.10;;;13.27;;
28216;SDS011;15493;56.858;24.340;2023-05-10T21:34:00;31.13;;;13.23;;
28216;SDS011;15493;56.858;24.340;2023-05-10T21:36:27;37.63;;;12.68;;
28216;SDS011;15493;56.858;24.340;2023-05-10T21:38:54;42.25;;;16.38;;
28216;SDS011;15493;56.858;24.340;2023-05-10T21:41:21;39.13;;;15.02;;
28216;SDS011;15493;56.858;24.340;2023-05-10T21:43:48;37.63;;;12.82;;
28216;SDS011;15493;56.858;24.340;2023-05-10T21:46:16;24.77;;;12.32;;
28216;SDS011;15493;56.858;24.340;2023-05-10T21:48:43;29.02;;;15.43;;
28216;SDS011;15493;56.858;24.340;2023-05-10T21:51:10;27.90;;;13.30;;
28216;SDS011;15493;56.858;24.340;2023-05-10T21:53:38;27.13;;;12.27;;
28216;SDS011;15493;56.858;24.340;2023-05-10T21:56:05;27.55;;;13.02;;
28216;SDS011;15493;56.858;24.340;2023-05-10T21:58:32;32.00;;;13.20;;
28216;SDS011;15493;56.858;24.340;2023-05-10T22:00:59;34.58;;;14.25;;
28216;SDS011;15493;56.858;24.340;2023-05-10T22:03:27;38.15;;;14.45;;
28216;SDS011;15493;56.858;24.340;2023-05-10T22:05:54;29.10;;;13.27;;
28216;SDS011;15493;56.858;24.340;2023-05-10T22:08:21;38.70;;;15.35;;
28216;SDS011;15493;56.858;24.340;2023-05-10T22:10:48;37.78;;;13.98;;
28216;SDS011;15493;56.858;24.340;2023-05-10T22:13:17;35.72;;;13.55;;
28216;SDS011;15493;56.858;24.340;2023-05-10T22:15:44;31.25;;;12.90;;
28216;SDS011;15493;56.858;24.340;2023-05-10T22:18:11;30.35;;;12.93;;
28216;SDS011;15493;56.858;24.340;2023-05-10T22:20:38;27.85;;;12.95;;
28216;SDS011;15493;56.858;24.340;2023-05-10T22:23:05;34.30;;;14.13;;
28216;SDS011;15493;56.858;24.340;2023-05-10T22:25:32;29.63;;;12.55;;
28216;SDS011;15493;56.858;24.340;2023-05-10T22:28:00;23.42;;;12.77;;
28216;SDS011;15493;56.858;24.340;2023-05-10T22:30:27;22.25;;;10.10;;
28216;SDS011;15493;56.858;24.340;2023-05-10T22:32:58;23.48;;;11.18;;
28216;SDS011;15493;56.858;24.340;2023-05-10T22:35:25;26.63;;;11.40;;
28216;SDS011;15493;56.858;24.340;2023-05-10T22:37:52;28.40;;;11.43;;
28216;SDS011;15493;56.858;24.340;2023-05-10T22:40:19;31.35;;;10.13;;
28216;SDS011;15493;56.858;24.340;2023-05-10T22:42:47;20.33;;;11.25;;
28216;SDS011;15493;56.858;24.340;2023-05-10T22:45:14;23.75;;;10.55;;
28216;SDS011;15493;56.858;24.340;2023-05-10T22:47:41;25.58;;;10.70;;
28216;SDS011;15493;56.858;24.340;2023-05-10T22:50:08;32.72;;;10.77;;
28216;SDS011;15493;56.858;24.340;2023-05-10T22:52:36;31.63;;;11.30;;
28216;SDS011;15493;56.858;24.340;2023-05-10T22:55:05;19.58;;;9.68;;
28216;SDS011;15493;56.858;24.340;2023-05-10T22:57:32;19.65;;;10.68;;
28216;SDS011;15493;56.858;24.340;2023-05-10T22:59:59;17.70;;;9.80;;
28216;SDS011;15493;56.858;24.340;2023-05-10T23:02:26;12.70;;;9.85;;
28216;SDS011;15493;56.858;24.340;2023-05-10T23:04:54;15.88;;;9.02;;
28216;SDS011;15493;56.858;24.340;2023-05-10T23:07:21;14.23;;;9.10;;
28216;SDS011;15493;56.858;24.340;2023-05-10T23:09:49;18.73;;;9.30;;
28216;SDS011;15493;56.858;24.340;2023-05-10T23:12:16;13.00;;;8.98;;
28216;SDS011;15493;56.858;24.340;2023-05-10T23:14:43;19.15;;;9.05;;
28216;SDS011;15493;56.858;24.340;2023-05-10T23:17:12;25.33;;;10.35;;
28216;SDS011;15493;56.858;24.340;2023-05-10T23:19:40;23.70;;;10.73;;
28216;SDS011;15493;56.858;24.340;2023-05-10T23:22:07;24.83;;;10.95;;
